sensor_id;sensor_type;location;lat;lon;timestamp;P1;durP1;ratioP1;P2;durP2;ratioP2
8247;SDS011;4164;49.844;8.830;2023-04-15T00:01:29;4.60;;;2.90;;
8247;SDS011;4164;49.844;8.830;2023-04-15T00:03:57;6.83;;;3.00;;
8247;SDS011;4164;49.844;8.830;2023-04-15T00:06:23;6.60;;;3.07;;
8247;SDS011;4164;49.844;8.830;2023-04-15T00:08:50;6.07;;;3.27;;
8247;SDS011;4164;49.844;8.830;2023-04-15T00:11:16;7.30;;;2.90;;
8247;SDS011;4164;49.844;8.830;2023-04-15T00:13:42;5.77;;;2.90;;
8247;SDS011;4164;49.844;8.830;2023-04-15T00:16:08;5.77;;;2.93;;
8247;SDS011;4164;49.844;8.830;2023-04-15T00:18:34;5.53;;;3.00;;
8247;SDS011;4164;49.844;8.830;2023-04-15T00:21:00;3.00;;;2.67;;
8247;SDS011;4164;49.844;8.830;2023-04-15T00:23:26;4.50;;;2.90;;
8247;SDS011;4164;49.844;8.830;2023-04-15T00:25:52;7.83;;;3.13;;
8247;SDS011;4164;49.844;8.830;2023-04-15T00:28:18;4.63;;;2.60;;
8247;SDS011;4164;49.844;8.830;2023-04-15T00:30:43;7.37;;;2.70;;
8247;SDS011;4164;49.844;8.830;2023-04-15T00:33:09;4.20;;;2.57;;
8247;SDS011;4164;49.844;8.830;2023-04-15T00:35:38;4.30;;;2.57;;
8247;SDS011;4164;49.844;8.830;2023-04-15T00:38:04;2.97;;;2.67;;
8247;SDS011;4164;49.844;8.830;2023-04-15T00:40:32;3.97;;;2.80;;
8247;SDS011;4164;49.844;8.830;2023-04-15T00:42:58;4.63;;;2.80;;
8247;SDS011;4164;49.844;8.830;2023-04-15T00:45:24;6.03;;;2.60;;
8247;SDS011;4164;49.844;8.830;2023-04-15T00:47:50;5.87;;;3.00;;
8247;SDS011;4164;49.844;8.830;2023-04-15T00:50:16;7.77;;;3.43;;
8247;SDS011;4164;49.844;8.830;2023-04-15T00:52:41;7.50;;;3.87;;
8247;SDS011;4164;49.844;8.830;2023-04-15T00:55:07;5.03;;;3.40;;
8247;SDS011;4164;49.844;8.830;2023-04-15T00:57:33;4.67;;;3.27;;
8247;SDS011;4164;49.844;8.830;2023-04-15T01:00:00;5.37;;;3.80;;
8247;SDS011;4164;49.844;8.830;2023-04-15T01:02:26;4.90;;;3.60;;
8247;SDS011;4164;49.844;8.830;2023-04-15T01:04:52;4.53;;;3.23;;
8247;SDS011;4164;49.844;8.830;2023-04-15T01:07:18;10.33;;;4.03;;
8247;SDS011;4164;49.844;8.830;2023-04-15T01:09:43;8.30;;;3.27;;
8247;SDS011;4164;49.844;8.830;2023-04-15T01:12:11;6.57;;;3.83;;
8247;SDS011;4164;49.844;8.830;2023-04-15T01:14:38;5.73;;;3.33;;
8247;SDS011;4164;49.844;8.830;2023-04-15T01:17:03;6.50;;;4.07;;
8247;SDS011;4164;49.844;8.830;2023-04-15T01:19:29;6.57;;;3.70;;
8247;SDS011;4164;49.844;8.830;2023-04-15T01:21:55;7.40;;;3.73;;
8247;SDS011;4164;49.844;8.830;2023-04-15T01:24:21;7.13;;;3.33;;
8247;SDS011;4164;49.844;8.830;2023-04-15T01:26:48;6.03;;;4.40;;
8247;SDS011;4164;49.844;8.830;2023-04-15T01:29:14;5.33;;;3.67;;
8247;SDS011;4164;49.844;8.830;2023-04-15T01:31:40;4.93;;;3.67;;
8247;SDS011;4164;49.844;8.830;2023-04-15T01:34:13;5.57;;;3.77;;
8247;SDS011;4164;49.844;8.830;2023-04-15T01:36:39;7.03;;;3.67;;
8247;SDS011;4164;49.844;8.830;2023-04-15T01:39:04;5.23;;;4.07;;
8247;SDS011;4164;49.844;8.830;2023-04-15T01:41:30;6.67;;;4.10;;
8247;SDS011;4164;49.844;8.830;2023-04-15T01:43:56;8.90;;;4.47;;
8247;SDS011;4164;49.844;8.830;2023-04-15T01:46:22;8.50;;;4.57;;
8247;SDS011;4164;49.844;8.830;2023-04-15T01:48:47;5.97;;;4.23;;
8247;SDS011;4164;49.844;8.830;2023-04-15T01:51:13;6.33;;;4.43;;
8247;SDS011;4164;49.844;8.830;2023-04-15T01:53:38;5.37;;;3.87;;
8247;SDS011;4164;49.844;8.830;2023-04-15T01:56:04;9.93;;;4.47;;
8247;SDS011;4164;49.844;8.830;2023-04-15T01:58:31;4.87;;;3.40;;
8247;SDS011;4164;49.844;8.830;2023-04-15T02:00:56;9.43;;;3.77;;
8247;SDS011;4164;49.844;8.830;2023-04-15T02:03:23;4.00;;;3.47;;
8247;SDS011;4164;49.844;8.830;2023-04-15T02:05:49;6.93;;;4.00;;
8247;SDS011;4164;49.844;8.830;2023-04-15T02:08:15;5.57;;;4.00;;
8247;SDS011;4164;49.844;8.830;2023-04-15T02:10:41;8.93;;;4.27;;
8247;SDS011;4164;49.844;8.830;2023-04-15T02:13:07;4.50;;;3.30;;
8247;SDS011;4164;49.844;8.830;2023-04-15T02:15:33;12.00;;;4.33;;
8247;SDS011;4164;49.844;8.830;2023-04-15T02:17:59;5.17;;;4.00;;
8247;SDS011;4164;49.844;8.830;2023-04-15T02:20:25;5.73;;;4.50;;
8247;SDS011;4164;49.844;8.830;2023-04-15T02:22:51;6.77;;;4.67;;
8247;SDS011;4164;49.844;8.830;2023-04-15T02:25:17;7.80;;;4.20;;
8247;SDS011;4164;49.844;8.830;2023-04-15T02:27:42;7.07;;;4.47;;
8247;SDS011;4164;49.844;8.830;2023-04-15T02:30:08;7.07;;;4.33;;
8247;SDS011;4164;49.844;8.830;2023-04-15T02:32:34;7.83;;;4.20;;
8247;SDS011;4164;49.844;8.830;2023-04-15T02:35:04;6.20;;;3.43;;
8247;SDS011;4164;49.844;8.830;2023-04-15T02:37:31;6.30;;;3.33;;
8247;SDS011;4164;49.844;8.830;2023-04-15T02:40:01;3.30;;;2.90;;
8247;SDS011;4164;49.844;8.830;2023-04-15T02:42:27;5.13;;;3.40;;
8247;SDS011;4164;49.844;8.830;2023-04-15T02:44:54;4.07;;;2.97;;
8247;SDS011;4164;49.844;8.830;2023-04-15T02:47:20;5.77;;;2.97;;
8247;SDS011;4164;49.844;8.830;2023-04-15T02:49:45;8.47;;;2.97;;
8247;SDS011;4164;49.844;8.830;2023-04-15T02:52:11;5.57;;;3.10;;
8247;SDS011;4164;49.844;8.830;2023-04-15T02:54:37;5.70;;;3.13;;
8247;SDS011;4164;49.844;8.830;2023-04-15T02:57:04;8.30;;;3.83;;
8247;SDS011;4164;49.844;8.830;2023-04-15T02:59:30;6.07;;;3.80;;
8247;SDS011;4164;49.844;8.830;2023-04-15T03:01:56;6.17;;;4.13;;
8247;SDS011;4164;49.844;8.830;2023-04-15T03:04:24;5.53;;;4.13;;
8247;SDS011;4164;49.844;8.830;2023-04-15T03:06:53;10.73;;;4.73;;
8247;SDS011;4164;49.844;8.830;2023-04-15T03:09:19;4.77;;;3.63;;
8247;SDS011;4164;49.844;8.830;2023-04-15T03:11:44;10.03;;;4.13;;
8247;SDS011;4164;49.844;8.830;2023-04-15T03:14:10;7.93;;;4.10;;
8247;SDS011;4164;49.844;8.830;2023-04-15T03:16:36;6.53;;;4.37;;
8247;SDS011;4164;49.844;8.830;2023-04-15T03:19:01;8.43;;;4.57;;
8247;SDS011;4164;49.844;8.830;2023-04-15T03:21:27;5.53;;;4.43;;
8247;SDS011;4164;49.844;8.830;2023-04-15T03:23:52;8.80;;;4.57;;
8247;SDS011;4164;49.844;8.830;2023-04-15T03:26:30;8.10;;;4.27;;
8247;SDS011;4164;49.844;8.830;2023-04-15T03:28:56;7.40;;;4.67;;
8247;SDS011;4164;49.844;8.830;2023-04-15T03:31:22;8.33;;;4.27;;
8247;SDS011;4164;49.844;8.830;2023-04-15T03:33:48;7.73;;;4.27;;
8247;SDS011;4164;49.844;8.830;2023-04-15T03:36:14;7.73;;;4.67;;
8247;SDS011;4164;49.844;8.830;2023-04-15T03:38:40;6.87;;;5.03;;
8247;SDS011;4164;49.844;8.830;2023-04-15T03:41:06;6.07;;;4.50;;
8247;SDS011;4164;49.844;8.830;2023-04-15T03:43:32;10.13;;;4.53;;
8247;SDS011;4164;49.844;8.830;2023-04-15T03:45:57;5.63;;;4.00;;
8247;SDS011;4164;49.844;8.830;2023-04-15T03:48:23;9.10;;;4.30;;
8247;SDS011;4164;49.844;8.830;2023-04-15T03:50:48;7.30;;;3.70;;
8247;SDS011;4164;49.844;8.830;2023-04-15T03:53:14;8.50;;;3.83;;
8247;SDS011;4164;49.844;8.830;2023-04-15T03:55:40;7.97;;;3.50;;
8247;SDS011;4164;49.844;8.830;2023-04-15T03:58:05;7.50;;;3.30;;
8247;SDS011;4164;49.844;8.830;2023-04-15T04:00:31;3.90;;;3.20;;
8247;SDS011;4164;49.844;8.830;2023-04-15T04:02:57;5.20;;;3.60;;
8247;SDS011;4164;49.844;8.830;2023-04-15T04:05:22;5.33;;;3.50;;
8247;SDS011;4164;49.844;8.830;2023-04-15T04:07:48;4.50;;;3.43;;
8247;SDS011;4164;49.844;8.830;2023-04-15T04:10:13;4.93;;;3.27;;
8247;SDS011;4164;49.844;8.830;2023-04-15T04:12:39;7.40;;;3.93;;
8247;SDS011;4164;49.844;8.830;2023-04-15T04:15:05;5.00;;;3.27;;
8247;SDS011;4164;49.844;8.830;2023-04-15T04:17:31;8.20;;;3.87;;
8247;SDS011;4164;49.844;8.830;2023-04-15T04:19:57;5.53;;;3.77;;
8247;SDS011;4164;49.844;8.830;2023-04-15T04:22:23;21.43;;;10.43;;
8247;SDS011;4164;49.844;8.830;2023-04-15T04:24:49;36.47;;;13.47;;
8247;SDS011;4164;49.844;8.830;2023-04-15T04:27:15;14.73;;;7.03;;
8247;SDS011;4164;49.844;8.830;2023-04-15T04:29:40;7.70;;;4.70;;
8247;SDS011;4164;49.844;8.830;2023-04-15T04:32:06;7.17;;;4.20;;
8247;SDS011;4164;49.844;8.830;2023-04-15T04:34:32;8.43;;;4.80;;
8247;SDS011;4164;49.844;8.830;2023-04-15T04:36:57;7.33;;;3.93;;
8247;SDS011;4164;49.844;8.830;2023-04-15T04:39:23;4.70;;;3.40;;
8247;SDS011;4164;49.844;8.830;2023-04-15T04:41:49;5.73;;;3.67;;
8247;SDS011;4164;49.844;8.830;2023-04-15T04:44:16;6.53;;;3.30;;
8247;SDS011;4164;49.844;8.830;2023-04-15T04:46:42;6.63;;;3.77;;
8247;SDS011;4164;49.844;8.830;2023-04-15T04:49:07;10.37;;;4.10;;
8247;SDS011;4164;49.844;8.830;2023-04-15T04:51:33;4.37;;;3.47;;
8247;SDS011;4164;49.844;8.830;2023-04-15T04:53:58;5.53;;;3.50;;
8247;SDS011;4164;49.844;8.830;2023-04-15T04:56:24;8.77;;;3.83;;
8247;SDS011;4164;49.844;8.830;2023-04-15T04:58:50;4.93;;;3.50;;
8247;SDS011;4164;49.844;8.830;2023-04-15T05:01:15;5.73;;;3.80;;
8247;SDS011;4164;49.844;8.830;2023-04-15T05:03:41;6.93;;;4.30;;
8247;SDS011;4164;49.844;8.830;2023-04-15T05:06:07;7.70;;;4.83;;
8247;SDS011;4164;49.844;8.830;2023-04-15T05:08:32;4.83;;;3.33;;
8247;SDS011;4164;49.844;8.830;2023-04-15T05:10:58;7.20;;;4.17;;
8247;SDS011;4164;49.844;8.830;2023-04-15T05:13:24;5.40;;;3.83;;
8247;SDS011;4164;49.844;8.830;2023-04-15T05:15:50;6.70;;;3.60;;
8247;SDS011;4164;49.844;8.830;2023-04-15T05:18:15;6.20;;;3.70;;
8247;SDS011;4164;49.844;8.830;2023-04-15T05:20:41;5.40;;;3.70;;
8247;SDS011;4164;49.844;8.830;2023-04-15T05:23:06;6.20;;;3.30;;
8247;SDS011;4164;49.844;8.830;2023-04-15T05:25:32;5.43;;;4.23;;
8247;SDS011;4164;49.844;8.830;2023-04-15T05:27:58;5.93;;;3.70;;
8247;SDS011;4164;49.844;8.830;2023-04-15T05:30:24;7.57;;;3.80;;
8247;SDS011;4164;49.844;8.830;2023-04-15T05:32:50;10.17;;;4.37;;
8247;SDS011;4164;49.844;8.830;2023-04-15T05:35:15;5.93;;;3.90;;
8247;SDS011;4164;49.844;8.830;2023-04-15T05:37:41;5.73;;;3.70;;
8247;SDS011;4164;49.844;8.830;2023-04-15T05:40:07;7.03;;;4.40;;
8247;SDS011;4164;49.844;8.830;2023-04-15T05:42:34;5.47;;;3.70;;
8247;SDS011;4164;49.844;8.830;2023-04-15T05:45:00;8.23;;;4.73;;
8247;SDS011;4164;49.844;8.830;2023-04-15T05:47:29;9.40;;;4.40;;
8247;SDS011;4164;49.844;8.830;2023-04-15T05:49:54;7.07;;;4.70;;
8247;SDS011;4164;49.844;8.830;2023-04-15T05:52:20;7.10;;;4.30;;
8247;SDS011;4164;49.844;8.830;2023-04-15T05:54:46;6.87;;;4.47;;
8247;SDS011;4164;49.844;8.830;2023-04-15T05:57:11;7.40;;;4.13;;
8247;SDS011;4164;49.844;8.830;2023-04-15T05:59:37;8.47;;;3.90;;
8247;SDS011;4164;49.844;8.830;2023-04-15T06:02:03;7.83;;;5.00;;
8247;SDS011;4164;49.844;8.830;2023-04-15T06:04:28;4.70;;;4.07;;
8247;SDS011;4164;49.844;8.830;2023-04-15T06:06:54;5.80;;;4.03;;
8247;SDS011;4164;49.844;8.830;2023-04-15T06:09:20;3.83;;;3.53;;
8247;SDS011;4164;49.844;8.830;2023-04-15T06:11:45;4.57;;;3.63;;
8247;SDS011;4164;49.844;8.830;2023-04-15T06:14:11;7.37;;;4.00;;
8247;SDS011;4164;49.844;8.830;2023-04-15T06:16:36;5.97;;;3.73;;
8247;SDS011;4164;49.844;8.830;2023-04-15T06:19:02;5.73;;;3.50;;
8247;SDS011;4164;49.844;8.830;2023-04-15T06:21:28;6.33;;;4.30;;
8247;SDS011;4164;49.844;8.830;2023-04-15T06:23:53;7.00;;;4.10;;
8247;SDS011;4164;49.844;8.830;2023-04-15T06:26:20;6.57;;;4.73;;
8247;SDS011;4164;49.844;8.830;2023-04-15T06:28:46;9.57;;;5.10;;
8247;SDS011;4164;49.844;8.830;2023-04-15T06:31:11;8.07;;;4.63;;
8247;SDS011;4164;49.844;8.830;2023-04-15T06:33:37;10.33;;;5.00;;
8247;SDS011;4164;49.844;8.830;2023-04-15T06:36:03;8.17;;;4.83;;
8247;SDS011;4164;49.844;8.830;2023-04-15T06:38:29;12.37;;;7.50;;
8247;SDS011;4164;49.844;8.830;2023-04-15T06:40:54;5.43;;;4.87;;
8247;SDS011;4164;49.844;8.830;2023-04-15T06:43:20;8.50;;;4.97;;
8247;SDS011;4164;49.844;8.830;2023-04-15T06:45:45;7.33;;;4.17;;
8247;SDS011;4164;49.844;8.830;2023-04-15T06:48:11;5.53;;;3.37;;
8247;SDS011;4164;49.844;8.830;2023-04-15T06:50:37;5.53;;;3.33;;
8247;SDS011;4164;49.844;8.830;2023-04-15T06:53:02;4.10;;;3.33;;
8247;SDS011;4164;49.844;8.830;2023-04-15T06:55:28;5.70;;;3.23;;
8247;SDS011;4164;49.844;8.830;2023-04-15T06:57:53;6.67;;;3.70;;
8247;SDS011;4164;49.844;8.830;2023-04-15T07:00:19;6.10;;;3.83;;
8247;SDS011;4164;49.844;8.830;2023-04-15T07:02:45;6.70;;;3.90;;
8247;SDS011;4164;49.844;8.830;2023-04-15T07:05:10;4.87;;;3.50;;
8247;SDS011;4164;49.844;8.830;2023-04-15T07:07:36;6.13;;;2.70;;
8247;SDS011;4164;49.844;8.830;2023-04-15T07:10:02;2.90;;;2.60;;
8247;SDS011;4164;49.844;8.830;2023-04-15T07:12:28;4.10;;;2.70;;
8247;SDS011;4164;49.844;8.830;2023-04-15T07:14:53;3.10;;;2.73;;
8247;SDS011;4164;49.844;8.830;2023-04-15T07:17:20;3.57;;;2.90;;
8247;SDS011;4164;49.844;8.830;2023-04-15T07:19:46;4.47;;;2.83;;
8247;SDS011;4164;49.844;8.830;2023-04-15T07:22:11;3.73;;;2.57;;
8247;SDS011;4164;49.844;8.830;2023-04-15T07:24:37;5.10;;;3.33;;
8247;SDS011;4164;49.844;8.830;2023-04-15T07:27:02;4.60;;;3.53;;
8247;SDS011;4164;49.844;8.830;2023-04-15T07:29:28;4.90;;;3.40;;
8247;SDS011;4164;49.844;8.830;2023-04-15T07:31:53;5.47;;;3.50;;
8247;SDS011;4164;49.844;8.830;2023-04-15T07:34:21;4.53;;;3.37;;
8247;SDS011;4164;49.844;8.830;2023-04-15T07:36:46;7.73;;;4.00;;
8247;SDS011;4164;49.844;8.830;2023-04-15T07:39:14;7.00;;;5.40;;
8247;SDS011;4164;49.844;8.830;2023-04-15T07:41:40;6.83;;;4.77;;
8247;SDS011;4164;49.844;8.830;2023-04-15T07:44:06;6.83;;;5.20;;
8247;SDS011;4164;49.844;8.830;2023-04-15T07:46:31;11.20;;;6.53;;
8247;SDS011;4164;49.844;8.830;2023-04-15T07:48:57;10.30;;;5.47;;
8247;SDS011;4164;49.844;8.830;2023-04-15T07:51:22;6.57;;;5.50;;
8247;SDS011;4164;49.844;8.830;2023-04-15T07:53:48;6.53;;;4.57;;
8247;SDS011;4164;49.844;8.830;2023-04-15T07:56:14;7.00;;;5.10;;
8247;SDS011;4164;49.844;8.830;2023-04-15T07:58:40;8.93;;;5.30;;
8247;SDS011;4164;49.844;8.830;2023-04-15T08:01:06;7.03;;;5.03;;
8247;SDS011;4164;49.844;8.830;2023-04-15T08:03:32;8.67;;;4.87;;
8247;SDS011;4164;49.844;8.830;2023-04-15T08:05:58;9.03;;;5.60;;
8247;SDS011;4164;49.844;8.830;2023-04-15T08:08:23;7.33;;;5.50;;
8247;SDS011;4164;49.844;8.830;2023-04-15T08:10:50;7.87;;;5.93;;
8247;SDS011;4164;49.844;8.830;2023-04-15T08:13:16;6.83;;;5.43;;
8247;SDS011;4164;49.844;8.830;2023-04-15T08:15:42;9.20;;;6.40;;
8247;SDS011;4164;49.844;8.830;2023-04-15T08:18:07;7.73;;;6.10;;
8247;SDS011;4164;49.844;8.830;2023-04-15T08:20:33;12.07;;;6.27;;
8247;SDS011;4164;49.844;8.830;2023-04-15T08:22:58;8.23;;;5.80;;
8247;SDS011;4164;49.844;8.830;2023-04-15T08:25:24;8.43;;;6.33;;
8247;SDS011;4164;49.844;8.830;2023-04-15T08:27:50;7.33;;;5.67;;
8247;SDS011;4164;49.844;8.830;2023-04-15T08:30:16;10.27;;;6.33;;
8247;SDS011;4164;49.844;8.830;2023-04-15T08:32:44;7.23;;;5.70;;
8247;SDS011;4164;49.844;8.830;2023-04-15T08:35:11;9.83;;;5.80;;
8247;SDS011;4164;49.844;8.830;2023-04-15T08:37:37;10.93;;;6.57;;
8247;SDS011;4164;49.844;8.830;2023-04-15T08:40:02;10.03;;;6.43;;
8247;SDS011;4164;49.844;8.830;2023-04-15T08:42:36;10.43;;;6.13;;
8247;SDS011;4164;49.844;8.830;2023-04-15T08:45:06;8.97;;;6.17;;
8247;SDS011;4164;49.844;8.830;2023-04-15T08:47:35;10.30;;;6.30;;
8247;SDS011;4164;49.844;8.830;2023-04-15T08:50:03;11.17;;;6.37;;
8247;SDS011;4164;49.844;8.830;2023-04-15T08:52:33;8.37;;;6.30;;
8247;SDS011;4164;49.844;8.830;2023-04-15T08:54:58;8.37;;;6.73;;
8247;SDS011;4164;49.844;8.830;2023-04-15T08:57:26;11.17;;;6.37;;
8247;SDS011;4164;49.844;8.830;2023-04-15T08:59:56;10.30;;;6.37;;
8247;SDS011;4164;49.844;8.830;2023-04-15T09:02:22;7.00;;;5.53;;
8247;SDS011;4164;49.844;8.830;2023-04-15T09:04:50;7.43;;;5.97;;
8247;SDS011;4164;49.844;8.830;2023-04-15T09:07:15;6.80;;;5.70;;
8247;SDS011;4164;49.844;8.830;2023-04-15T09:09:41;6.50;;;5.33;;
8247;SDS011;4164;49.844;8.830;2023-04-15T09:12:07;8.43;;;5.67;;
8247;SDS011;4164;49.844;8.830;2023-04-15T09:14:33;6.40;;;5.57;;
8247;SDS011;4164;49.844;8.830;2023-04-15T09:16:59;9.00;;;4.70;;
8247;SDS011;4164;49.844;8.830;2023-04-15T09:19:29;5.60;;;4.17;;
8247;SDS011;4164;49.844;8.830;2023-04-15T09:21:57;5.00;;;3.97;;
8247;SDS011;4164;49.844;8.830;2023-04-15T09:24:24;5.60;;;4.03;;
8247;SDS011;4164;49.844;8.830;2023-04-15T09:26:51;6.67;;;3.90;;
8247;SDS011;4164;49.844;8.830;2023-04-15T09:29:21;4.40;;;3.20;;
8247;SDS011;4164;49.844;8.830;2023-04-15T09:31:48;5.20;;;3.70;;
8247;SDS011;4164;49.844;8.830;2023-04-15T09:34:14;3.80;;;3.40;;
8247;SDS011;4164;49.844;8.830;2023-04-15T09:37:01;6.03;;;3.13;;
8247;SDS011;4164;49.844;8.830;2023-04-15T09:39:26;3.33;;;3.00;;
8247;SDS011;4164;49.844;8.830;2023-04-15T09:42:07;4.40;;;3.00;;
8247;SDS011;4164;49.844;8.830;2023-04-15T09:44:32;3.40;;;2.47;;
8247;SDS011;4164;49.844;8.830;2023-04-15T09:46:58;4.50;;;3.07;;
8247;SDS011;4164;49.844;8.830;2023-04-15T09:49:23;3.60;;;2.13;;
8247;SDS011;4164;49.844;8.830;2023-04-15T09:51:49;3.43;;;2.33;;
8247;SDS011;4164;49.844;8.830;2023-04-15T09:54:18;4.10;;;2.40;;
8247;SDS011;4164;49.844;8.830;2023-04-15T09:56:46;5.20;;;2.13;;
8247;SDS011;4164;49.844;8.830;2023-04-15T09:59:12;3.67;;;2.00;;
8247;SDS011;4164;49.844;8.830;2023-04-15T10:01:38;1.70;;;1.60;;
8247;SDS011;4164;49.844;8.830;2023-04-15T10:04:06;2.37;;;1.80;;
8247;SDS011;4164;49.844;8.830;2023-04-15T10:06:33;2.30;;;1.70;;
8247;SDS011;4164;49.844;8.830;2023-04-15T10:08:59;1.97;;;1.80;;
8247;SDS011;4164;49.844;8.830;2023-04-15T10:11:28;2.17;;;1.93;;
8247;SDS011;4164;49.844;8.830;2023-04-15T10:13:55;3.33;;;2.13;;
8247;SDS011;4164;49.844;8.830;2023-04-15T10:16:22;2.10;;;1.90;;
8247;SDS011;4164;49.844;8.830;2023-04-15T10:18:55;2.20;;;2.00;;
8247;SDS011;4164;49.844;8.830;2023-04-15T10:21:22;2.40;;;2.20;;
8247;SDS011;4164;49.844;8.830;2023-04-15T10:23:48;4.53;;;2.10;;
8247;SDS011;4164;49.844;8.830;2023-04-15T10:26:15;3.90;;;2.07;;
8247;SDS011;4164;49.844;8.830;2023-04-15T10:28:44;2.57;;;2.27;;
8247;SDS011;4164;49.844;8.830;2023-04-15T10:31:13;2.93;;;2.13;;
8247;SDS011;4164;49.844;8.830;2023-04-15T10:33:39;2.80;;;2.33;;
8247;SDS011;4164;49.844;8.830;2023-04-15T10:36:06;2.30;;;2.10;;
8247;SDS011;4164;49.844;8.830;2023-04-15T10:41:17;2.67;;;2.40;;
8247;SDS011;4164;49.844;8.830;2023-04-15T10:43:51;3.77;;;2.60;;
8247;SDS011;4164;49.844;8.830;2023-04-15T10:46:33;3.30;;;2.70;;
8247;SDS011;4164;49.844;8.830;2023-04-15T10:49:05;3.10;;;2.40;;
8247;SDS011;4164;49.844;8.830;2023-04-15T10:51:40;5.60;;;2.40;;
8247;SDS011;4164;49.844;8.830;2023-04-15T10:54:13;3.87;;;2.80;;
8247;SDS011;4164;49.844;8.830;2023-04-15T10:56:41;2.63;;;2.33;;
8247;SDS011;4164;49.844;8.830;2023-04-15T10:59:08;2.90;;;2.60;;
8247;SDS011;4164;49.844;8.830;2023-04-15T11:12:51;2.77;;;2.10;;
8247;SDS011;4164;49.844;8.830;2023-04-15T11:15:34;3.83;;;2.57;;
8247;SDS011;4164;49.844;8.830;2023-04-15T11:20:38;2.70;;;2.37;;
8247;SDS011;4164;49.844;8.830;2023-04-15T11:23:05;4.13;;;2.00;;
8247;SDS011;4164;49.844;8.830;2023-04-15T11:25:31;2.10;;;1.90;;
8247;SDS011;4164;49.844;8.830;2023-04-15T11:27:58;3.13;;;2.20;;
8247;SDS011;4164;49.844;8.830;2023-04-15T11:30:26;2.57;;;2.33;;
8247;SDS011;4164;49.844;8.830;2023-04-15T11:32:54;3.37;;;2.10;;
8247;SDS011;4164;49.844;8.830;2023-04-15T11:35:27;2.00;;;1.80;;
8247;SDS011;4164;49.844;8.830;2023-04-15T11:37:53;2.20;;;1.93;;
8247;SDS011;4164;49.844;8.830;2023-04-15T11:40:29;2.90;;;2.00;;
8247;SDS011;4164;49.844;8.830;2023-04-15T11:45:54;3.97;;;2.13;;
8247;SDS011;4164;49.844;8.830;2023-04-15T11:48:25;3.30;;;2.23;;
8247;SDS011;4164;49.844;8.830;2023-04-15T11:51:02;2.47;;;2.10;;
8247;SDS011;4164;49.844;8.830;2023-04-15T11:56:01;2.13;;;1.90;;
8247;SDS011;4164;49.844;8.830;2023-04-15T11:58:28;4.27;;;3.80;;
8247;SDS011;4164;49.844;8.830;2023-04-15T12:00:54;2.30;;;2.10;;
8247;SDS011;4164;49.844;8.830;2023-04-15T12:03:28;2.50;;;2.20;;
8247;SDS011;4164;49.844;8.830;2023-04-15T12:08:47;2.40;;;2.07;;
8247;SDS011;4164;49.844;8.830;2023-04-15T12:13:54;2.33;;;2.07;;
8247;SDS011;4164;49.844;8.830;2023-04-15T12:16:21;3.13;;;2.50;;
8247;SDS011;4164;49.844;8.830;2023-04-15T12:18:51;2.50;;;2.30;;
8247;SDS011;4164;49.844;8.830;2023-04-15T12:21:22;2.97;;;2.13;;
8247;SDS011;4164;49.844;8.830;2023-04-15T12:23:49;2.97;;;2.77;;
8247;SDS011;4164;49.844;8.830;2023-04-15T12:26:16;2.90;;;2.60;;
8247;SDS011;4164;49.844;8.830;2023-04-15T12:28:42;2.80;;;2.60;;
8247;SDS011;4164;49.844;8.830;2023-04-15T12:31:08;2.47;;;2.23;;
8247;SDS011;4164;49.844;8.830;2023-04-15T12:33:34;3.20;;;2.33;;
8247;SDS011;4164;49.844;8.830;2023-04-15T12:36:00;3.10;;;2.50;;
8247;SDS011;4164;49.844;8.830;2023-04-15T12:38:29;5.27;;;2.03;;
8247;SDS011;4164;49.844;8.830;2023-04-15T12:40:55;3.40;;;2.30;;
8247;SDS011;4164;49.844;8.830;2023-04-15T12:43:22;2.77;;;2.50;;
8247;SDS011;4164;49.844;8.830;2023-04-15T12:45:48;2.67;;;2.47;;
8247;SDS011;4164;49.844;8.830;2023-04-15T12:48:13;2.47;;;2.27;;
8247;SDS011;4164;49.844;8.830;2023-04-15T12:50:39;2.53;;;2.33;;
8247;SDS011;4164;49.844;8.830;2023-04-15T12:53:04;4.03;;;3.10;;
8247;SDS011;4164;49.844;8.830;2023-04-15T12:55:30;2.60;;;2.37;;
8247;SDS011;4164;49.844;8.830;2023-04-15T12:57:56;3.73;;;2.40;;
8247;SDS011;4164;49.844;8.830;2023-04-15T13:00:21;2.67;;;2.47;;
8247;SDS011;4164;49.844;8.830;2023-04-15T13:02:47;2.80;;;2.47;;
8247;SDS011;4164;49.844;8.830;2023-04-15T13:05:13;2.50;;;2.30;;
8247;SDS011;4164;49.844;8.830;2023-04-15T13:07:39;3.73;;;2.40;;
8247;SDS011;4164;49.844;8.830;2023-04-15T13:10:06;2.73;;;2.50;;
8247;SDS011;4164;49.844;8.830;2023-04-15T13:12:32;2.77;;;2.43;;
8247;SDS011;4164;49.844;8.830;2023-04-15T13:15:01;2.97;;;2.47;;
8247;SDS011;4164;49.844;8.830;2023-04-15T13:17:28;3.00;;;2.60;;
8247;SDS011;4164;49.844;8.830;2023-04-15T13:19:53;3.03;;;2.77;;
8247;SDS011;4164;49.844;8.830;2023-04-15T13:22:19;4.23;;;2.70;;
8247;SDS011;4164;49.844;8.830;2023-04-15T13:24:45;3.20;;;2.90;;
8247;SDS011;4164;49.844;8.830;2023-04-15T13:27:11;4.80;;;2.90;;
8247;SDS011;4164;49.844;8.830;2023-04-15T13:29:36;13.77;;;7.97;;
8247;SDS011;4164;49.844;8.830;2023-04-15T13:32:03;2.80;;;2.60;;
8247;SDS011;4164;49.844;8.830;2023-04-15T13:34:29;5.63;;;4.37;;
8247;SDS011;4164;49.844;8.830;2023-04-15T13:36:55;4.03;;;3.13;;
8247;SDS011;4164;49.844;8.830;2023-04-15T13:39:20;4.70;;;3.63;;
8247;SDS011;4164;49.844;8.830;2023-04-15T13:41:46;5.70;;;4.93;;
8247;SDS011;4164;49.844;8.830;2023-04-15T13:44:12;4.20;;;3.17;;
8247;SDS011;4164;49.844;8.830;2023-04-15T13:46:38;4.03;;;2.93;;
8247;SDS011;4164;49.844;8.830;2023-04-15T13:49:06;4.20;;;3.20;;
8247;SDS011;4164;49.844;8.830;2023-04-15T13:51:32;5.10;;;4.50;;
8247;SDS011;4164;49.844;8.830;2023-04-15T13:53:57;12.00;;;4.93;;
8247;SDS011;4164;49.844;8.830;2023-04-15T13:56:23;2.60;;;2.40;;
8247;SDS011;4164;49.844;8.830;2023-04-15T13:58:48;3.27;;;2.73;;
8247;SDS011;4164;49.844;8.830;2023-04-15T14:01:14;2.80;;;2.53;;
8247;SDS011;4164;49.844;8.830;2023-04-15T14:03:43;2.80;;;1.80;;
8247;SDS011;4164;49.844;8.830;2023-04-15T14:06:08;2.20;;;1.70;;
8247;SDS011;4164;49.844;8.830;2023-04-15T14:08:34;1.93;;;1.83;;
8247;SDS011;4164;49.844;8.830;2023-04-15T14:11:00;2.27;;;1.90;;
8247;SDS011;4164;49.844;8.830;2023-04-15T14:13:25;2.50;;;2.03;;
8247;SDS011;4164;49.844;8.830;2023-04-15T14:15:51;2.13;;;1.90;;
8247;SDS011;4164;49.844;8.830;2023-04-15T14:18:16;2.67;;;2.40;;
8247;SDS011;4164;49.844;8.830;2023-04-15T14:20:42;2.80;;;2.33;;
8247;SDS011;4164;49.844;8.830;2023-04-15T14:23:08;2.70;;;2.50;;
8247;SDS011;4164;49.844;8.830;2023-04-15T14:25:33;4.77;;;3.47;;
8247;SDS011;4164;49.844;8.830;2023-04-15T14:27:59;5.53;;;3.30;;
8247;SDS011;4164;49.844;8.830;2023-04-15T14:30:25;4.10;;;3.20;;
8247;SDS011;4164;49.844;8.830;2023-04-15T14:32:50;4.47;;;3.20;;
8247;SDS011;4164;49.844;8.830;2023-04-15T14:35:16;4.77;;;3.33;;
8247;SDS011;4164;49.844;8.830;2023-04-15T14:37:42;3.53;;;2.90;;
8247;SDS011;4164;49.844;8.830;2023-04-15T14:40:07;6.53;;;3.20;;
8247;SDS011;4164;49.844;8.830;2023-04-15T14:42:33;4.70;;;3.03;;
8247;SDS011;4164;49.844;8.830;2023-04-15T14:45:00;5.03;;;3.50;;
8247;SDS011;4164;49.844;8.830;2023-04-15T14:47:26;2.33;;;1.93;;
8247;SDS011;4164;49.844;8.830;2023-04-15T14:49:51;3.20;;;2.07;;
8247;SDS011;4164;49.844;8.830;2023-04-15T14:52:17;2.70;;;2.50;;
8247;SDS011;4164;49.844;8.830;2023-04-15T14:54:42;2.33;;;2.07;;
8247;SDS011;4164;49.844;8.830;2023-04-15T14:57:08;2.80;;;2.30;;
8247;SDS011;4164;49.844;8.830;2023-04-15T14:59:33;4.00;;;2.60;;
8247;SDS011;4164;49.844;8.830;2023-04-15T15:01:59;2.33;;;2.07;;
8247;SDS011;4164;49.844;8.830;2023-04-15T15:04:24;2.10;;;1.87;;
8247;SDS011;4164;49.844;8.830;2023-04-15T15:06:50;1.80;;;1.70;;
8247;SDS011;4164;49.844;8.830;2023-04-15T15:09:16;1.80;;;1.70;;
8247;SDS011;4164;49.844;8.830;2023-04-15T15:11:43;2.63;;;2.33;;
8247;SDS011;4164;49.844;8.830;2023-04-15T15:14:09;3.23;;;2.83;;
8247;SDS011;4164;49.844;8.830;2023-04-15T15:16:35;5.17;;;1.57;;
8247;SDS011;4164;49.844;8.830;2023-04-15T15:19:01;2.00;;;1.80;;
8247;SDS011;4164;49.844;8.830;2023-04-15T15:21:27;2.33;;;2.13;;
8247;SDS011;4164;49.844;8.830;2023-04-15T15:23:52;2.80;;;2.57;;
8247;SDS011;4164;49.844;8.830;2023-04-15T15:26:18;6.67;;;4.20;;
8247;SDS011;4164;49.844;8.830;2023-04-15T15:28:43;7.57;;;5.40;;
8247;SDS011;4164;49.844;8.830;2023-04-15T15:31:10;3.23;;;2.90;;
8247;SDS011;4164;49.844;8.830;2023-04-15T15:33:35;8.63;;;5.37;;
8247;SDS011;4164;49.844;8.830;2023-04-15T15:36:01;4.60;;;3.13;;
8247;SDS011;4164;49.844;8.830;2023-04-15T15:38:27;3.97;;;2.40;;